sensor_id;sensor_type;location;lat;lon;timestamp;temperature;humidity
23267;DHT22;11802;53.160;8.214;2022-12-18T00:01:26;-3.00;99.90
23267;DHT22;11802;53.160;8.214;2022-12-18T00:03:52;-2.90;99.90
23267;DHT22;11802;53.160;8.214;2022-12-18T00:06:18;-2.90;99.90
23267;DHT22;11802;53.160;8.214;2022-12-18T00:08:45;-3.00;99.90
23267;DHT22;11802;53.160;8.214;2022-12-18T00:11:13;-3.00;99.90
23267;DHT22;11802;53.160;8.214;2022-12-18T00:13:39;-3.10;99.90
23267;DHT22;11802;53.160;8.214;2022-12-18T00:16:06;-3.10;99.90
23267;DHT22;11802;53.160;8.214;2022-12-18T00:18:32;-3.10;99.90
23267;DHT22;11802;53.160;8.214;2022-12-18T00:21:00;-3.10;99.90
23267;DHT22;11802;53.160;8.214;2022-12-18T00:23:26;-3.10;99.90
23267;DHT22;11802;53.160;8.214;2022-12-18T00:25:52;-3.20;99.90
23267;DHT22;11802;53.160;8.214;2022-12-18T00:28:18;-3.20;99.90
23267;DHT22;11802;53.160;8.214;2022-12-18T00:30:43;-3.30;99.90
23267;DHT22;11802;53.160;8.214;2022-12-18T00:33:08;-3.30;99.90
23267;DHT22;11802;53.160;8.214;2022-12-18T00:35:34;-3.40;99.90
23267;DHT22;11802;53.160;8.214;2022-12-18T00:37:59;-3.40;99.90
23267;DHT22;11802;53.160;8.214;2022-12-18T00:40:25;-3.50;99.90
23267;DHT22;11802;53.160;8.214;2022-12-18T00:42:50;-3.50;99.90
23267;DHT22;11802;53.160;8.214;2022-12-18T00:45:27;-3.50;99.90
23267;DHT22;11802;53.160;8.214;2022-12-18T00:47:53;-3.60;99.90
23267;DHT22;11802;53.160;8.214;2022-12-18T00:50:19;-3.60;99.90
23267;DHT22;11802;53.160;8.214;2022-12-18T00:52:44;-3.60;99.90
23267;DHT22;11802;53.160;8.214;2022-12-18T00:55:10;-3.70;99.90
23267;DHT22;11802;53.160;8.214;2022-12-18T00:57:36;-3.80;99.90
23267;DHT22;11802;53.160;8.214;2022-12-18T01:00:03;-3.90;99.90
23267;DHT22;11802;53.160;8.214;2022-12-18T01:02:29;-4.00;99.90
23267;DHT22;11802;53.160;8.214;2022-12-18T01:04:55;-4.00;99.90
23267;DHT22;11802;53.160;8.214;2022-12-18T01:07:20;-4.10;99.90
23267;DHT22;11802;53.160;8.214;2022-12-18T01:09:46;-4.20;99.90
23267;DHT22;11802;53.160;8.214;2022-12-18T01:12:11;-4.30;99.90
23267;DHT22;11802;53.160;8.214;2022-12-18T01:14:37;-4.30;99.90
23267;DHT22;11802;53.160;8.214;2022-12-18T01:17:03;-4.40;99.90
23267;DHT22;11802;53.160;8.214;2022-12-18T01:19:29;-4.50;99.90
23267;DHT22;11802;53.160;8.214;2022-12-18T01:21:55;-4.50;99.90
23267;DHT22;11802;53.160;8.214;2022-12-18T01:24:20;-4.60;99.90
23267;DHT22;11802;53.160;8.214;2022-12-18T01:26:46;-4.60;99.90
23267;DHT22;11802;53.160;8.214;2022-12-18T01:29:11;-4.60;99.90
23267;DHT22;11802;53.160;8.214;2022-12-18T01:31:37;-4.70;99.90
23267;DHT22;11802;53.160;8.214;2022-12-18T01:34:04;-4.70;99.90
23267;DHT22;11802;53.160;8.214;2022-12-18T01:36:32;-4.70;99.90
23267;DHT22;11802;53.160;8.214;2022-12-18T01:39:01;-4.80;99.90
23267;DHT22;11802;53.160;8.214;2022-12-18T01:41:30;-4.70;99.90
23267;DHT22;11802;53.160;8.214;2022-12-18T01:49:45;-4.90;99.90
23267;DHT22;11802;53.160;8.214;2022-12-18T01:52:11;-4.90;99.90
23267;DHT22;11802;53.160;8.214;2022-12-18T01:54:37;-4.90;99.90
23267;DHT22;11802;53.160;8.214;2022-12-18T01:57:02;-5.00;99.90
23267;DHT22;11802;53.160;8.214;2022-12-18T01:59:29;-5.00;99.90
23267;DHT22;11802;53.160;8.214;2022-12-18T02:01:56;-5.00;99.90
23267;DHT22;11802;53.160;8.214;2022-12-18T02:04:24;-5.10;99.90
23267;DHT22;11802;53.160;8.214;2022-12-18T02:06:55;-5.20;99.90
23267;DHT22;11802;53.160;8.214;2022-12-18T02:09:31;-5.30;99.90
23267;DHT22;11802;53.160;8.214;2022-12-18T02:12:18;-5.30;99.90
23267;DHT22;11802;53.160;8.214;2022-12-18T02:20:21;-5.30;99.90
23267;DHT22;11802;53.160;8.214;2022-12-18T02:28:40;-5.40;99.90
23267;DHT22;11802;53.160;8.214;2022-12-18T02:31:09;-5.40;99.90
23267;DHT22;11802;53.160;8.214;2022-12-18T02:33:36;-5.30;99.90
23267;DHT22;11802;53.160;8.214;2022-12-18T02:36:05;-5.40;99.90
23267;DHT22;11802;53.160;8.214;2022-12-18T02:38:31;-5.40;99.90
23267;DHT22;11802;53.160;8.214;2022-12-18T02:40:59;-5.40;99.90
23267;DHT22;11802;53.160;8.214;2022-12-18T02:43:25;-5.50;99.90
23267;DHT22;11802;53.160;8.214;2022-12-18T02:45:57;-5.50;99.90
23267;DHT22;11802;53.160;8.214;2022-12-18T02:48:29;-5.60;99.90
23267;DHT22;11802;53.160;8.214;2022-12-18T02:51:23;-5.60;99.90
23267;DHT22;11802;53.160;8.214;2022-12-18T02:53:58;-5.60;99.90
23267;DHT22;11802;53.160;8.214;2022-12-18T02:56:46;-5.70;99.90
23267;DHT22;11802;53.160;8.214;2022-12-18T02:59:19;-5.60;99.90
23267;DHT22;11802;53.160;8.214;2022-12-18T03:02:26;-5.70;99.90
23267;DHT22;11802;53.160;8.214;2022-12-18T03:04:57;-5.70;99.90
23267;DHT22;11802;53.160;8.214;2022-12-18T03:07:57;-5.70;99.90
23267;DHT22;11802;53.160;8.214;2022-12-18T03:10:26;-5.80;99.90
23267;DHT22;11802;53.160;8.214;2022-12-18T03:15:50;-5.70;99.90
23267;DHT22;11802;53.160;8.214;2022-12-18T03:18:23;-5.70;99.90
23267;DHT22;11802;53.160;8.214;2022-12-18T03:20:52;-5.80;99.90
23267;DHT22;11802;53.160;8.214;2022-12-18T03:23:27;-5.90;99.90
23267;DHT22;11802;53.160;8.214;2022-12-18T03:25:58;-5.90;99.90
23267;DHT22;11802;53.160;8.214;2022-12-18T03:28:24;-5.90;99.90
23267;DHT22;11802;53.160;8.214;2022-12-18T03:30:57;-5.90;99.90
23267;DHT22;11802;53.160;8.214;2022-12-18T03:33:47;-5.90;99.90
23267;DHT22;11802;53.160;8.214;2022-12-18T03:36:16;-6.00;99.90
23267;DHT22;11802;53.160;8.214;2022-12-18T03:38:41;-6.10;99.90
23267;DHT22;11802;53.160;8.214;2022-12-18T03:41:29;-6.10;99.90
23267;DHT22;11802;53.160;8.214;2022-12-18T03:43:59;-6.10;99.90
23267;DHT22;11802;53.160;8.214;2022-12-18T03:52:38;-6.20;99.90
23267;DHT22;11802;53.160;8.214;2022-12-18T03:55:07;-6.20;99.90
23267;DHT22;11802;53.160;8.214;2022-12-18T03:57:34;-6.30;99.90
23267;DHT22;11802;53.160;8.214;2022-12-18T04:00:12;-6.30;99.90
23267;DHT22;11802;53.160;8.214;2022-12-18T04:02:50;-6.30;99.90
23267;DHT22;11802;53.160;8.214;2022-12-18T04:05:17;-6.40;99.90
23267;DHT22;11802;53.160;8.214;2022-12-18T04:07:46;-6.30;99.90
23267;DHT22;11802;53.160;8.214;2022-12-18T04:10:13;-6.40;99.90
23267;DHT22;11802;53.160;8.214;2022-12-18T04:12:40;-6.40;99.90
23267;DHT22;11802;53.160;8.214;2022-12-18T04:15:06;-6.30;99.90
23267;DHT22;11802;53.160;8.214;2022-12-18T04:17:32;-6.40;99.90
23267;DHT22;11802;53.160;8.214;2022-12-18T04:19:57;-6.30;99.90
23267;DHT22;11802;53.160;8.214;2022-12-18T04:22:23;-6.40;99.90
23267;DHT22;11802;53.160;8.214;2022-12-18T04:24:48;-6.40;99.90
23267;DHT22;11802;53.160;8.214;2022-12-18T04:27:14;-6.50;99.90
23267;DHT22;11802;53.160;8.214;2022-12-18T04:29:39;-6.50;99.90
23267;DHT22;11802;53.160;8.214;2022-12-18T04:32:05;-6.40;99.90
23267;DHT22;11802;53.160;8.214;2022-12-18T04:34:30;-6.50;99.90
23267;DHT22;11802;53.160;8.214;2022-12-18T04:36:56;-6.50;99.90
23267;DHT22;11802;53.160;8.214;2022-12-18T04:39:22;-6.40;99.90
23267;DHT22;11802;53.160;8.214;2022-12-18T04:41:47;-6.40;99.90
23267;DHT22;11802;53.160;8.214;2022-12-18T04:44:13;-6.40;99.90
23267;DHT22;11802;53.160;8.214;2022-12-18T04:46:39;-6.30;99.90
23267;DHT22;11802;53.160;8.214;2022-12-18T04:49:04;-6.40;99.90
23267;DHT22;11802;53.160;8.214;2022-12-18T04:51:30;-6.50;99.90
23267;DHT22;11802;53.160;8.214;2022-12-18T04:53:55;-6.50;99.90
23267;DHT22;11802;53.160;8.214;2022-12-18T04:56:21;-6.50;99.90
23267;DHT22;11802;53.160;8.214;2022-12-18T04:58:47;-6.50;99.90
23267;DHT22;11802;53.160;8.214;2022-12-18T05:01:16;-6.50;99.90
23267;DHT22;11802;53.160;8.214;2022-12-18T05:03:41;-6.50;99.90
23267;DHT22;11802;53.160;8.214;2022-12-18T05:06:07;-6.50;99.90
23267;DHT22;11802;53.160;8.214;2022-12-18T05:08:33;-6.50;99.90
23267;DHT22;11802;53.160;8.214;2022-12-18T05:11:06;-6.50;99.90
23267;DHT22;11802;53.160;8.214;2022-12-18T05:13:32;-6.50;99.90
23267;DHT22;11802;53.160;8.214;2022-12-18T05:15:58;-6.50;99.90
23267;DHT22;11802;53.160;8.214;2022-12-18T05:18:24;-6.50;99.90
23267;DHT22;11802;53.160;8.214;2022-12-18T05:20:50;-6.50;99.90
23267;DHT22;11802;53.160;8.214;2022-12-18T05:23:16;-6.60;99.90
23267;DHT22;11802;53.160;8.214;2022-12-18T05:25:42;-6.60;99.90
23267;DHT22;11802;53.160;8.214;2022-12-18T05:28:07;-6.50;99.90
23267;DHT22;11802;53.160;8.214;2022-12-18T05:30:33;-6.50;99.90
23267;DHT22;11802;53.160;8.214;2022-12-18T05:32:58;-6.50;99.90
23267;DHT22;11802;53.160;8.214;2022-12-18T05:35:24;-6.50;99.90
23267;DHT22;11802;53.160;8.214;2022-12-18T05:37:50;-6.40;99.90
23267;DHT22;11802;53.160;8.214;2022-12-18T05:40:15;-6.40;99.90
23267;DHT22;11802;53.160;8.214;2022-12-18T05:42:41;-6.40;99.90
23267;DHT22;11802;53.160;8.214;2022-12-18T05:45:07;-6.40;99.90
23267;DHT22;11802;53.160;8.214;2022-12-18T05:47:33;-6.40;99.90
23267;DHT22;11802;53.160;8.214;2022-12-18T05:49:58;-6.40;99.90
23267;DHT22;11802;53.160;8.214;2022-12-18T05:52:24;-6.40;99.90
23267;DHT22;11802;53.160;8.214;2022-12-18T05:54:50;-6.40;99.90
23267;DHT22;11802;53.160;8.214;2022-12-18T05:57:15;-6.50;99.90
23267;DHT22;11802;53.160;8.214;2022-12-18T05:59:41;-6.50;99.90
23267;DHT22;11802;53.160;8.214;2022-12-18T06:02:06;-6.50;99.90
23267;DHT22;11802;53.160;8.214;2022-12-18T06:04:32;-6.60;99.90
23267;DHT22;11802;53.160;8.214;2022-12-18T06:06:58;-6.60;99.90
23267;DHT22;11802;53.160;8.214;2022-12-18T06:09:23;-6.60;99.90
23267;DHT22;11802;53.160;8.214;2022-12-18T06:11:51;-6.50;99.90
23267;DHT22;11802;53.160;8.214;2022-12-18T06:14:16;-6.50;99.90
23267;DHT22;11802;53.160;8.214;2022-12-18T06:16:42;-6.50;99.90
23267;DHT22;11802;53.160;8.214;2022-12-18T06:19:12;-6.60;99.90
23267;DHT22;11802;53.160;8.214;2022-12-18T06:21:39;-6.50;99.90
23267;DHT22;11802;53.160;8.214;2022-12-18T06:24:04;-6.50;99.90
23267;DHT22;11802;53.160;8.214;2022-12-18T06:26:30;-6.50;99.90
23267;DHT22;11802;53.160;8.214;2022-12-18T06:28:56;-6.40;99.90
23267;DHT22;11802;53.160;8.214;2022-12-18T06:31:21;-6.50;99.90
23267;DHT22;11802;53.160;8.214;2022-12-18T06:33:47;-6.50;99.90
23267;DHT22;11802;53.160;8.214;2022-12-18T06:36:13;-6.50;99.90
23267;DHT22;11802;53.160;8.214;2022-12-18T06:38:42;-6.60;99.90
23267;DHT22;11802;53.160;8.214;2022-12-18T06:41:09;-6.60;99.90
23267;DHT22;11802;53.160;8.214;2022-12-18T06:43:35;-6.60;99.90
23267;DHT22;11802;53.160;8.214;2022-12-18T06:46:01;-6.60;99.90
23267;DHT22;11802;53.160;8.214;2022-12-18T06:48:27;-6.60;99.90
23267;DHT22;11802;53.160;8.214;2022-12-18T06:50:52;-6.70;99.90
23267;DHT22;11802;53.160;8.214;2022-12-18T06:53:18;-6.70;99.90
23267;DHT22;11802;53.160;8.214;2022-12-18T06:55:43;-6.60;99.90
23267;DHT22;11802;53.160;8.214;2022-12-18T06:58:09;-6.70;99.90
23267;DHT22;11802;53.160;8.214;2022-12-18T07:00:34;-6.60;99.90
23267;DHT22;11802;53.160;8.214;2022-12-18T07:03:00;-6.60;99.90
23267;DHT22;11802;53.160;8.214;2022-12-18T07:05:25;-6.60;99.90
23267;DHT22;11802;53.160;8.214;2022-12-18T07:07:51;-6.60;99.90
23267;DHT22;11802;53.160;8.214;2022-12-18T07:10:16;-6.60;99.90
23267;DHT22;11802;53.160;8.214;2022-12-18T07:12:42;-6.70;99.90
23267;DHT22;11802;53.160;8.214;2022-12-18T07:15:07;-6.60;99.90
23267;DHT22;11802;53.160;8.214;2022-12-18T07:17:33;-6.60;99.90
23267;DHT22;11802;53.160;8.214;2022-12-18T07:19:58;-6.60;99.90
23267;DHT22;11802;53.160;8.214;2022-12-18T07:22:25;-6.60;99.90
23267;DHT22;11802;53.160;8.214;2022-12-18T07:24:51;-6.50;99.90
23267;DHT22;11802;53.160;8.214;2022-12-18T07:27:16;-6.50;99.90
23267;DHT22;11802;53.160;8.214;2022-12-18T07:29:42;-6.50;99.90
23267;DHT22;11802;53.160;8.214;2022-12-18T07:32:08;-6.50;99.90
23267;DHT22;11802;53.160;8.214;2022-12-18T07:34:34;-6.50;99.90
23267;DHT22;11802;53.160;8.214;2022-12-18T07:36:59;-6.50;99.90
23267;DHT22;11802;53.160;8.214;2022-12-18T07:39:25;-6.50;99.90
23267;DHT22;11802;53.160;8.214;2022-12-18T07:41:51;-6.50;99.90
23267;DHT22;11802;53.160;8.214;2022-12-18T07:44:36;-6.50;99.90
23267;DHT22;11802;53.160;8.214;2022-12-18T07:47:01;-6.50;99.90
23267;DHT22;11802;53.160;8.214;2022-12-18T07:49:27;-6.40;99.90
23267;DHT22;11802;53.160;8.214;2022-12-18T07:51:55;-6.40;99.90
23267;DHT22;11802;53.160;8.214;2022-12-18T07:54:22;-6.40;99.90
23267;DHT22;11802;53.160;8.214;2022-12-18T07:56:47;-6.40;99.90
23267;DHT22;11802;53.160;8.214;2022-12-18T07:59:13;-6.30;99.90
23267;DHT22;11802;53.160;8.214;2022-12-18T08:01:39;-6.30;99.90
23267;DHT22;11802;53.160;8.214;2022-12-18T08:04:04;-6.20;99.90
23267;DHT22;11802;53.160;8.214;2022-12-18T08:06:30;-6.20;99.90
23267;DHT22;11802;53.160;8.214;2022-12-18T08:08:56;-6.10;99.90
23267;DHT22;11802;53.160;8.214;2022-12-18T08:11:23;-6.10;99.90
23267;DHT22;11802;53.160;8.214;2022-12-18T08:13:49;-6.10;99.90
23267;DHT22;11802;53.160;8.214;2022-12-18T08:16:15;-6.00;99.90
23267;DHT22;11802;53.160;8.214;2022-12-18T08:18:41;-5.90;99.90
23267;DHT22;11802;53.160;8.214;2022-12-18T08:21:09;-5.90;99.90
23267;DHT22;11802;53.160;8.214;2022-12-18T08:23:35;-5.80;99.90
23267;DHT22;11802;53.160;8.214;2022-12-18T08:26:01;-5.80;99.90
23267;DHT22;11802;53.160;8.214;2022-12-18T08:28:26;-5.80;99.90
23267;DHT22;11802;53.160;8.214;2022-12-18T08:30:52;-5.70;99.90
23267;DHT22;11802;53.160;8.214;2022-12-18T08:33:18;-5.70;99.90
23267;DHT22;11802;53.160;8.214;2022-12-18T08:35:43;-5.60;99.90
23267;DHT22;11802;53.160;8.214;2022-12-18T08:38:09;-5.50;99.90
23267;DHT22;11802;53.160;8.214;2022-12-18T08:40:34;-5.50;99.90
23267;DHT22;11802;53.160;8.214;2022-12-18T08:43:00;-5.30;99.90
23267;DHT22;11802;53.160;8.214;2022-12-18T08:45:44;-5.30;99.90
23267;DHT22;11802;53.160;8.214;2022-12-18T08:48:09;-5.10;99.90
23267;DHT22;11802;53.160;8.214;2022-12-18T08:50:35;-5.00;99.90
23267;DHT22;11802;53.160;8.214;2022-12-18T08:53:01;-4.90;99.90
23267;DHT22;11802;53.160;8.214;2022-12-18T08:55:26;-4.80;99.90
23267;DHT22;11802;53.160;8.214;2022-12-18T08:57:52;-4.70;99.90
23267;DHT22;11802;53.160;8.214;2022-12-18T09:00:18;-4.60;99.90
23267;DHT22;11802;53.160;8.214;2022-12-18T09:02:43;-4.60;99.90
23267;DHT22;11802;53.160;8.214;2022-12-18T09:05:09;-4.50;99.90
23267;DHT22;11802;53.160;8.214;2022-12-18T09:07:35;-4.40;99.90
23267;DHT22;11802;53.160;8.214;2022-12-18T09:10:00;-4.30;99.90
23267;DHT22;11802;53.160;8.214;2022-12-18T09:12:29;-4.20;99.90
23267;DHT22;11802;53.160;8.214;2022-12-18T09:14:54;-4.10;99.90
23267;DHT22;11802;53.160;8.214;2022-12-18T09:17:21;-4.00;99.90
23267;DHT22;11802;53.160;8.214;2022-12-18T09:19:47;-3.90;99.90
23267;DHT22;11802;53.160;8.214;2022-12-18T09:22:12;-3.80;99.90
23267;DHT22;11802;53.160;8.214;2022-12-18T09:24:38;-3.60;99.90
23267;DHT22;11802;53.160;8.214;2022-12-18T09:27:03;-3.50;99.90
23267;DHT22;11802;53.160;8.214;2022-12-18T09:29:29;-3.50;99.90
23267;DHT22;11802;53.160;8.214;2022-12-18T09:31:54;-3.40;99.90
23267;DHT22;11802;53.160;8.214;2022-12-18T09:34:20;-3.40;99.90
23267;DHT22;11802;53.160;8.214;2022-12-18T09:36:47;-3.40;99.90
23267;DHT22;11802;53.160;8.214;2022-12-18T09:39:13;-3.30;99.90
23267;DHT22;11802;53.160;8.214;2022-12-18T09:44:36;-3.30;99.90
23267;DHT22;11802;53.160;8.214;2022-12-18T09:47:23;-3.30;99.90
23267;DHT22;11802;53.160;8.214;2022-12-18T09:49:56;-3.30;99.90
23267;DHT22;11802;53.160;8.214;2022-12-18T09:52:37;-3.30;99.90
23267;DHT22;11802;53.160;8.214;2022-12-18T09:57:45;-3.10;99.90
23267;DHT22;11802;53.160;8.214;2022-12-18T10:00:23;-3.10;99.90
23267;DHT22;11802;53.160;8.214;2022-12-18T10:02:58;-3.10;99.90
23267;DHT22;11802;53.160;8.214;2022-12-18T10:08:49;-2.90;99.90
23267;DHT22;11802;53.160;8.214;2022-12-18T10:14:34;-2.80;99.90
23267;DHT22;11802;53.160;8.214;2022-12-18T10:20:16;-2.70;99.90
23267;DHT22;11802;53.160;8.214;2022-12-18T10:23:08;-2.50;99.90
23267;DHT22;11802;53.160;8.214;2022-12-18T10:25:55;-2.50;99.90
23267;DHT22;11802;53.160;8.214;2022-12-18T10:28:23;-2.50;99.90
23267;DHT22;11802;53.160;8.214;2022-12-18T10:30:49;-2.40;99.90
23267;DHT22;11802;53.160;8.214;2022-12-18T10:33:21;-2.40;99.90
23267;DHT22;11802;53.160;8.214;2022-12-18T10:35:50;-2.40;99.90
23267;DHT22;11802;53.160;8.214;2022-12-18T10:41:03;-2.30;99.90
23267;DHT22;11802;53.160;8.214;2022-12-18T10:43:37;-2.30;99.90
23267;DHT22;11802;53.160;8.214;2022-12-18T10:46:14;-2.20;99.90
23267;DHT22;11802;53.160;8.214;2022-12-18T10:48:56;-2.10;99.90
23267;DHT22;11802;53.160;8.214;2022-12-18T10:51:31;-2.00;99.90
23267;DHT22;11802;53.160;8.214;2022-12-18T10:56:28;-1.90;99.90
23267;DHT22;11802;53.160;8.214;2022-12-18T10:59:03;-1.80;99.90
23267;DHT22;11802;53.160;8.214;2022-12-18T11:02:07;-1.60;99.90
23267;DHT22;11802;53.160;8.214;2022-12-18T11:04:33;-1.50;99.90
23267;DHT22;11802;53.160;8.214;2022-12-18T11:09:35;-1.20;99.90
23267;DHT22;11802;53.160;8.214;2022-12-18T11:12:14;-1.00;99.90
23267;DHT22;11802;53.160;8.214;2022-12-18T11:14:48;-0.80;99.90
23267;DHT22;11802;53.160;8.214;2022-12-18T11:17:32;-0.80;99.90
23267;DHT22;11802;53.160;8.214;2022-12-18T11:20:02;-0.70;99.90
23267;DHT22;11802;53.160;8.214;2022-12-18T11:22:35;-0.60;99.90
23267;DHT22;11802;53.160;8.214;2022-12-18T11:27:54;-0.60;99.90
23267;DHT22;11802;53.160;8.214;2022-12-18T11:30:23;-0.60;99.90
23267;DHT22;11802;53.160;8.214;2022-12-18T11:32:56;-0.50;99.90
23267;DHT22;11802;53.160;8.214;2022-12-18T11:35:42;-0.50;99.90
23267;DHT22;11802;53.160;8.214;2022-12-18T11:38:15;-0.60;99.90
23267;DHT22;11802;53.160;8.214;2022-12-18T11:40:47;-0.60;99.90
23267;DHT22;11802;53.160;8.214;2022-12-18T11:43:19;-0.70;99.90
23267;DHT22;11802;53.160;8.214;2022-12-18T11:45:54;-0.70;99.90
23267;DHT22;11802;53.160;8.214;2022-12-18T11:48:37;-0.70;99.90
23267;DHT22;11802;53.160;8.214;2022-12-18T11:51:08;-0.70;99.90
23267;DHT22;11802;53.160;8.214;2022-12-18T11:53:35;-0.60;99.90
23267;DHT22;11802;53.160;8.214;2022-12-18T11:56:39;-0.50;99.90
23267;DHT22;11802;53.160;8.214;2022-12-18T12:01:55;-0.70;99.90
23267;DHT22;11802;53.160;8.214;2022-12-18T12:04:46;-0.70;99.90
23267;DHT22;11802;53.160;8.214;2022-12-18T12:10:28;-1.00;99.90
23267;DHT22;11802;53.160;8.214;2022-12-18T12:21:28;-1.10;99.90
23267;DHT22;11802;53.160;8.214;2022-12-18T12:27:01;-1.30;99.90
23267;DHT22;11802;53.160;8.214;2022-12-18T12:29:37;-1.30;99.90
23267;DHT22;11802;53.160;8.214;2022-12-18T12:39:44;-1.30;99.90
23267;DHT22;11802;53.160;8.214;2022-12-18T12:42:37;-1.20;99.90
23267;DHT22;11802;53.160;8.214;2022-12-18T12:45:28;-1.20;99.90
23267;DHT22;11802;53.160;8.214;2022-12-18T12:47:57;-1.10;99.90
23267;DHT22;11802;53.160;8.214;2022-12-18T12:50:24;-1.10;99.90
23267;DHT22;11802;53.160;8.214;2022-12-18T12:52:55;-1.20;99.90
23267;DHT22;11802;53.160;8.214;2022-12-18T12:55:24;-1.10;99.90
23267;DHT22;11802;53.160;8.214;2022-12-18T13:00:36;-1.00;99.90
23267;DHT22;11802;53.160;8.214;2022-12-18T13:03:15;-1.00;99.90
23267;DHT22;11802;53.160;8.214;2022-12-18T13:05:50;-1.00;99.90
23267;DHT22;11802;53.160;8.214;2022-12-18T13:10:53;-1.10;99.90
23267;DHT22;11802;53.160;8.214;2022-12-18T13:13:54;-1.10;99.90
23267;DHT22;11802;53.160;8.214;2022-12-18T13:16:25;-1.10;99.90
23267;DHT22;11802;53.160;8.214;2022-12-18T13:18:54;-1.10;99.90
23267;DHT22;11802;53.160;8.214;2022-12-18T13:21:30;-1.10;99.90
23267;DHT22;11802;53.160;8.214;2022-12-18T13:23:56;-1.10;99.90
23267;DHT22;11802;53.160;8.214;2022-12-18T13:26:39;-1.10;99.90
23267;DHT22;11802;53.160;8.214;2022-12-18T13:29:04;-1.10;99.90
23267;DHT22;11802;53.160;8.214;2022-12-18T13:34:17;-1.30;99.90
23267;DHT22;11802;53.160;8.214;2022-12-18T13:36:43;-1.30;99.90
23267;DHT22;11802;53.160;8.214;2022-12-18T13:41:46;-1.30;99.90
23267;DHT22;11802;53.160;8.214;2022-12-18T13:47:33;-1.30;99.90
23267;DHT22;11802;53.160;8.214;2022-12-18T13:49:59;-1.40;99.90
23267;DHT22;11802;53.160;8.214;2022-12-18T13:52:28;-1.50;99.90
23267;DHT22;11802;53.160;8.214;2022-12-18T13:54:56;-1.50;99.90
23267;DHT22;11802;53.160;8.214;2022-12-18T13:57:32;-1.50;99.90
23267;DHT22;11802;53.160;8.214;2022-12-18T14:02:45;-1.50;99.90
23267;DHT22;11802;53.160;8.214;2022-12-18T14:05:30;-1.50;99.90
23267;DHT22;11802;53.160;8.214;2022-12-18T14:08:01;-1.50;99.90
23267;DHT22;11802;53.160;8.214;2022-12-18T14:10:31;-1.60;99.90
23267;DHT22;11802;53.160;8.214;2022-12-18T14:13:01;-1.60;99.90
23267;DHT22;11802;53.160;8.214;2022-12-18T14:20:45;-1.60;99.90
23267;DHT22;11802;53.160;8.214;2022-12-18T14:25:51;-1.70;99.90
23267;DHT22;11802;53.160;8.214;2022-12-18T14:28:16;-1.70;99.90
23267;DHT22;11802;53.160;8.214;2022-12-18T14:30:44;-1.70;99.90
23267;DHT22;11802;53.160;8.214;2022-12-18T14:33:11;-1.80;99.90
23267;DHT22;11802;53.160;8.214;2022-12-18T14:35:51;-1.80;99.90
23267;DHT22;11802;53.160;8.214;2022-12-18T14:40:53;-1.80;99.90
23267;DHT22;11802;53.160;8.214;2022-12-18T14:43:19;-1.90;99.90
23267;DHT22;11802;53.160;8.214;2022-12-18T14:45:45;-1.90;99.90
23267;DHT22;11802;53.160;8.214;2022-12-18T14:48:14;-1.90;99.90
23267;DHT22;11802;53.160;8.214;2022-12-18T14:50:40;-1.90;99.90
23267;DHT22;11802;53.160;8.214;2022-12-18T14:53:23;-2.00;99.90
23267;DHT22;11802;53.160;8.214;2022-12-18T14:55:52;-2.00;99.90
23267;DHT22;11802;53.160;8.214;2022-12-18T14:58:18;-2.00;99.90
23267;DHT22;11802;53.160;8.214;2022-12-18T15:00:44;-2.00;99.90
23267;DHT22;11802;53.160;8.214;2022-12-18T15:03:10;-2.00;99.90
23267;DHT22;11802;53.160;8.214;2022-12-18T15:05:35;-2.00;99.90
23267;DHT22;11802;53.160;8.214;2022-12-18T15:08:01;-2.00;99.90
23267;DHT22;11802;53.160;8.214;2022-12-18T15:10:31;-2.00;99.90
23267;DHT22;11802;53.160;8.214;2022-12-18T15:20:53;-2.00;99.90
23267;DHT22;11802;53.160;8.214;2022-12-18T15:26:23;-2.00;99.90
23267;DHT22;11802;53.160;8.214;2022-12-18T15:28:52;-2.00;99.90
23267;DHT22;11802;53.160;8.214;2022-12-18T15:31:30;-2.00;99.90
23267;DHT22;11802;53.160;8.214;2022-12-18T15:36:23;-1.90;99.90
23267;DHT22;11802;53.160;8.214;2022-12-18T15:38:50;-1.90;99.90
23267;DHT22;11802;53.160;8.214;2022-12-18T15:41:18;-1.90;99.90
23267;DHT22;11802;53.160;8.214;2022-12-18T15:43:45;-1.90;99.90
23267;DHT22;11802;53.160;8.214;2022-12-18T15:46:16;-1.90;99.90
23267;DHT22;11802;53.160;8.214;2022-12-18T15:48:48;-1.80;99.90
23267;DHT22;11802;53.160;8.214;2022-12-18T15:51:24;-1.80;99.90
23267;DHT22;11802;53.160;8.214;2022-12-18T15:53:53;-1.80;99.90
23267;DHT22;11802;53.160;8.214;2022-12-18T15:56:19;-1.80;99.90
23267;DHT22;11802;53.160;8.214;2022-12-18T15:59:15;-1.80;99.90
23267;DHT22;11802;53.160;8.214;2022-12-18T16:01:42;-1.80;99.90
23267;DHT22;11802;53.160;8.214;2022-12-18T16:04:12;-1.70;99.90
23267;DHT22;11802;53.160;8.214;2022-12-18T16:06:38;-1.70;99.90
23267;DHT22;11802;53.160;8.214;2022-12-18T16:09:04;-1.70;99.90
23267;DHT22;11802;53.160;8.214;2022-12-18T16:11:32;-1.70;99.90
23267;DHT22;11802;53.160;8.214;2022-12-18T16:16:52;-1.60;99.90
23267;DHT22;11802;53.160;8.214;2022-12-18T16:19:18;-1.60;99.90
23267;DHT22;11802;53.160;8.214;2022-12-18T16:21:45;-1.60;99.90
23267;DHT22;11802;53.160;8.214;2022-12-18T16:24:19;-1.60;99.90
23267;DHT22;11802;53.160;8.214;2022-12-18T16:26:47;-1.60;99.90
23267;DHT22;11802;53.160;8.214;2022-12-18T16:29:13;-1.50;99.90
23267;DHT22;11802;53.160;8.214;2022-12-18T16:31:39;-1.50;99.90
23267;DHT22;11802;53.160;8.214;2022-12-18T16:34:21;-1.50;99.90
23267;DHT22;11802;53.160;8.214;2022-12-18T16:36:54;-1.50;99.90
23267;DHT22;11802;53.160;8.214;2022-12-18T16:39:20;-1.50;99.90
23267;DHT22;11802;53.160;8.214;2022-12-18T16:41:46;-1.50;99.90
23267;DHT22;11802;53.160;8.214;2022-12-18T16:44:13;-1.50;99.90
23267;DHT22;11802;53.160;8.214;2022-12-18T16:46:39;-1.50;99.90
23267;DHT22;11802;53.160;8.214;2022-12-18T16:49:08;-1.50;99.90
23267;DHT22;11802;53.160;8.214;2022-12-18T16:51:34;-1.50;99.90
23267;DHT22;11802;53.160;8.214;2022-12-18T16:53:59;-1.50;99.90
23267;DHT22;11802;53.160;8.214;2022-12-18T16:56:25;-1.50;99.90
23267;DHT22;11802;53.160;8.214;2022-12-18T16:58:52;-1.50;99.90
23267;DHT22;11802;53.160;8.214;2022-12-18T17:01:18;-1.50;99.90
23267;DHT22;11802;53.160;8.214;2022-12-18T17:03:44;-1.50;99.90
23267;DHT22;11802;53.160;8.214;2022-12-18T17:06:09;-1.50;99.90
23267;DHT22;11802;53.160;8.214;2022-12-18T17:08:35;-1.40;99.90
23267;DHT22;11802;53.160;8.214;2022-12-18T17:11:05;-1.50;99.90
23267;DHT22;11802;53.160;8.214;2022-12-18T17:13:31;-1.40;99.90
23267;DHT22;11802;53.160;8.214;2022-12-18T17:16:02;-1.40;99.90
23267;DHT22;11802;53.160;8.214;2022-12-18T17:18:28;-1.40;99.90
23267;DHT22;11802;53.160;8.214;2022-12-18T17:21:01;-1.40;99.90
23267;DHT22;11802;53.160;8.214;2022-12-18T17:23:27;-1.40;99.90
23267;DHT22;11802;53.160;8.214;2022-12-18T17:25:55;-1.40;99.90
23267;DHT22;11802;53.160;8.214;2022-12-18T17:28:22;-1.40;99.90
23267;DHT22;11802;53.160;8.214;2022-12-18T17:30:47;-1.30;99.90
23267;DHT22;11802;53.160;8.214;2022-12-18T17:33:13;-1.30;99.90
23267;DHT22;11802;53.160;8.214;2022-12-18T17:35:38;-1.30;99.90
23267;DHT22;11802;53.160;8.214;2022-12-18T17:38:04;-1.30;99.90
23267;DHT22;11802;53.160;8.214;2022-12-18T17:40:33;-1.30;99.90
23267;DHT22;11802;53.160;8.214;2022-12-18T17:42:59;-1.30;99.90